createdAt,value
2019-03-19T00:02:27.951Z,3.97
2019-03-19T00:04:56.956Z,3.23
2019-03-19T00:07:25.947Z,3.53
2019-03-19T00:09:54.999Z,4.07
2019-03-19T00:12:23.997Z,3.77
2019-03-19T00:14:53.123Z,4.33
2019-03-19T00:17:22.130Z,4.20
2019-03-19T00:19:51.266Z,3.83
2019-03-19T00:22:20.334Z,3.80
2019-03-19T00:24:49.609Z,3.60
2019-03-19T00:27:18.678Z,5.30
2019-03-19T00:29:47.933Z,3.83
2019-03-19T00:32:17.049Z,3.80
2019-03-19T00:34:46.201Z,4.53
2019-03-19T00:37:15.238Z,3.53
2019-03-19T00:39:44.222Z,4.37
2019-03-19T00:42:13.457Z,4.07
2019-03-19T00:44:42.632Z,4.07
2019-03-19T00:47:11.671Z,4.33
2019-03-19T00:49:40.661Z,3.50
2019-03-19T00:52:09.664Z,5.03
2019-03-19T00:54:38.671Z,3.57
2019-03-19T00:57:07.690Z,3.53
2019-03-19T00:59:36.738Z,3.53
2019-03-19T01:02:05.759Z,4.47
2019-03-19T01:04:34.776Z,3.77
2019-03-19T01:07:03.880Z,3.70
2019-03-19T01:09:32.929Z,3.60
2019-03-19T01:12:01.949Z,4.30
2019-03-19T01:14:30.969Z,3.93
2019-03-19T01:17:00.009Z,3.67
2019-03-19T01:19:28.957Z,4.07
2019-03-19T01:21:57.891Z,4.40
2019-03-19T01:24:27.011Z,4.70
2019-03-19T01:26:56.007Z,3.97
2019-03-19T01:29:25.031Z,3.50
2019-03-19T01:31:54.021Z,3.50
2019-03-19T01:34:23.038Z,3.67
2019-03-19T01:36:52.083Z,3.93
2019-03-19T01:39:21.094Z,3.93
2019-03-19T01:41:50.093Z,4.53
2019-03-19T01:44:19.172Z,3.87
2019-03-19T01:46:48.155Z,5.27
2019-03-19T01:49:17.167Z,5.47
2019-03-19T01:51:46.172Z,4.03
2019-03-19T01:54:15.172Z,4.73
2019-03-19T01:56:44.190Z,4.53
2019-03-19T01:59:38.210Z,4.17
2019-03-19T02:02:07.205Z,4.33
2019-03-19T02:04:36.307Z,4.87
2019-03-19T02:07:05.296Z,5.13
2019-03-19T02:09:34.315Z,5.40
2019-03-19T02:12:03.317Z,3.77
2019-03-19T02:14:32.349Z,3.73
2019-03-19T02:17:01.339Z,4.23
2019-03-19T02:19:30.375Z,3.97
2019-03-19T02:21:59.372Z,4.47
2019-03-19T02:24:28.740Z,3.50
2019-03-19T02:26:57.746Z,4.43
2019-03-19T02:29:26.770Z,4.33
2019-03-19T02:31:55.765Z,4.73
2019-03-19T02:34:24.853Z,5.40
2019-03-19T02:36:53.895Z,4.23
2019-03-19T02:39:22.887Z,4.47
2019-03-19T02:41:51.918Z,4.37
2019-03-19T02:44:20.932Z,4.57
2019-03-19T02:46:49.963Z,5.27
2019-03-19T02:49:18.981Z,4.67
2019-03-19T02:51:48.041Z,4.27
2019-03-19T02:54:17.083Z,4.90
2019-03-19T02:56:46.147Z,4.83
2019-03-19T02:59:15.351Z,4.50
2019-03-19T03:01:44.482Z,5.83
2019-03-19T03:04:13.488Z,4.53
2019-03-19T03:06:42.527Z,5.03
2019-03-19T03:09:11.625Z,4.70
2019-03-19T03:11:40.659Z,5.47
2019-03-19T03:14:09.674Z,3.93
2019-03-19T03:16:38.722Z,5.23
2019-03-19T03:19:07.826Z,5.40
2019-03-19T03:21:36.870Z,5.13
2019-03-19T03:27:35.910Z,4.97
2019-03-19T03:30:06.503Z,5.23
2019-03-19T03:32:35.526Z,4.80
2019-03-19T03:38:01.012Z,5.20
2019-03-19T03:40:29.969Z,5.60
2019-03-19T03:42:59.004Z,5.30
2019-03-19T03:45:28.058Z,5.20
2019-03-19T03:47:57.095Z,5.53
2019-03-19T03:50:26.147Z,5.23
2019-03-19T03:52:55.206Z,4.97
2019-03-19T03:55:24.235Z,7.30
2019-03-19T03:57:53.283Z,6.33
2019-03-19T04:00:22.995Z,5.40
2019-03-19T04:02:51.998Z,5.70
2019-03-19T04:05:21.035Z,6.07
2019-03-19T04:07:50.387Z,5.70
2019-03-19T04:10:19.736Z,5.17
2019-03-19T04:12:49.051Z,5.50
2019-03-19T04:15:43.692Z,6.07
2019-03-19T04:18:12.730Z,6.63
2019-03-19T04:20:41.779Z,5.90
2019-03-19T04:23:10.825Z,6.00
2019-03-19T04:25:39.748Z,6.70
2019-03-19T04:28:08.788Z,7.23
2019-03-19T04:30:37.823Z,6.70
2019-03-19T04:33:06.919Z,6.63
2019-03-19T04:35:35.949Z,6.87
2019-03-19T04:38:05.005Z,7.43
2019-03-19T04:40:34.102Z,5.60
2019-03-19T04:43:03.202Z,6.80
2019-03-19T04:45:32.221Z,7.13
2019-03-19T04:48:03.482Z,7.20
2019-03-19T04:50:31.961Z,7.40
2019-03-19T04:53:01.097Z,7.43
2019-03-19T04:55:30.118Z,8.50
2019-03-19T04:57:59.120Z,7.40
2019-03-19T05:00:28.141Z,7.57
2019-03-19T05:02:57.189Z,6.63
2019-03-19T05:05:26.205Z,7.27
2019-03-19T05:07:55.209Z,7.77
2019-03-19T05:10:24.225Z,7.63
2019-03-19T05:13:12.577Z,7.60
2019-03-19T05:15:41.621Z,8.63
2019-03-19T05:18:10.687Z,6.80
2019-03-19T05:20:39.715Z,6.60
2019-03-19T05:23:08.748Z,7.10
2019-03-19T05:25:37.775Z,7.17
2019-03-19T05:28:06.776Z,7.17
2019-03-19T05:30:35.800Z,6.77
2019-03-19T05:33:04.962Z,7.97
2019-03-19T05:35:34.001Z,8.07
2019-03-19T05:38:03.095Z,7.43
2019-03-19T05:40:32.200Z,7.80
2019-03-19T05:43:21.569Z,7.50
2019-03-19T05:45:50.644Z,8.53
2019-03-19T05:48:19.643Z,7.33
2019-03-19T05:50:48.668Z,6.97
2019-03-19T05:53:17.753Z,7.53
2019-03-19T05:55:46.768Z,6.27
2019-03-19T05:58:15.794Z,6.10
2019-03-19T06:00:44.828Z,6.90
2019-03-19T06:03:13.912Z,5.83
2019-03-19T06:05:42.934Z,5.63
2019-03-19T06:08:11.974Z,4.53
2019-03-19T06:10:41.035Z,5.57
2019-03-19T06:13:10.065Z,5.70
2019-03-19T06:15:39.115Z,5.50
2019-03-19T06:18:08.401Z,4.53
2019-03-19T06:20:37.464Z,5.17
2019-03-19T06:23:06.504Z,4.73
2019-03-19T06:25:35.533Z,4.87
2019-03-19T06:28:04.556Z,5.03
2019-03-19T06:30:33.510Z,5.37
2019-03-19T06:33:02.539Z,4.97
2019-03-19T06:35:31.571Z,5.53
2019-03-19T06:38:00.625Z,5.23
2019-03-19T06:40:29.617Z,5.30
2019-03-19T06:42:58.758Z,5.40
2019-03-19T06:45:27.816Z,4.50
2019-03-19T06:47:56.829Z,4.53
2019-03-19T06:50:27.999Z,5.03
2019-03-19T06:52:56.523Z,5.50
2019-03-19T06:55:25.569Z,4.67
2019-03-19T06:57:54.596Z,5.37
2019-03-19T07:00:23.883Z,5.07
2019-03-19T07:02:52.976Z,5.17
2019-03-19T07:05:22.237Z,5.30
2019-03-19T07:07:51.300Z,5.20
2019-03-19T07:10:20.585Z,5.40
2019-03-19T07:12:49.615Z,5.77
2019-03-19T07:15:19.112Z,5.17
2019-03-19T07:17:48.142Z,5.13
2019-03-19T07:20:17.833Z,5.00
2019-03-19T07:22:46.925Z,5.43
2019-03-19T07:25:15.974Z,5.17
2019-03-19T07:27:45.084Z,4.90
2019-03-19T07:30:15.643Z,4.47
2019-03-19T07:32:44.659Z,4.17
2019-03-19T07:35:13.767Z,5.13
2019-03-19T07:37:42.775Z,5.27
2019-03-19T07:40:12.383Z,6.13
2019-03-19T07:42:41.510Z,5.53
2019-03-19T07:45:12.060Z,6.30
2019-03-19T07:47:41.093Z,6.00
2019-03-19T07:50:11.302Z,5.17
2019-03-19T07:52:40.311Z,6.57
2019-03-19T07:55:09.535Z,5.10
2019-03-19T07:57:38.598Z,5.87
2019-03-19T08:00:09.402Z,6.50
2019-03-19T08:02:38.494Z,5.17
2019-03-19T08:05:08.508Z,4.53
2019-03-19T08:07:37.630Z,5.30
2019-03-19T08:10:08.443Z,4.60
2019-03-19T08:12:37.486Z,5.07
2019-03-19T08:15:08.149Z,5.30
2019-03-19T08:17:37.191Z,4.63
2019-03-19T08:20:07.664Z,4.63
2019-03-19T08:22:36.741Z,4.90
2019-03-19T08:25:08.802Z,5.30
2019-03-19T08:27:38.052Z,4.97
2019-03-19T08:30:08.666Z,5.07
2019-03-19T08:32:37.713Z,5.03
2019-03-19T08:35:06.834Z,5.67
2019-03-19T08:37:35.865Z,5.10
2019-03-19T08:40:06.453Z,5.30
2019-03-19T08:42:35.473Z,5.00
2019-03-19T08:45:06.036Z,5.67
2019-03-19T08:47:35.112Z,5.50
2019-03-19T08:50:06.002Z,5.73
2019-03-19T08:52:35.177Z,5.20
2019-03-19T08:55:05.184Z,5.47
2019-03-19T08:57:34.253Z,5.27
2019-03-19T09:00:04.802Z,5.07
2019-03-19T09:02:35.396Z,4.47
2019-03-19T09:05:05.572Z,5.07
2019-03-19T09:07:34.611Z,5.57
2019-03-19T09:10:05.276Z,4.60
2019-03-19T09:12:34.322Z,4.90
2019-03-19T09:15:03.697Z,4.90
2019-03-19T09:17:32.755Z,4.97
2019-03-19T09:20:01.725Z,4.40
2019-03-19T09:22:31.005Z,4.80
2019-03-19T09:25:00.041Z,5.63
2019-03-19T09:27:29.090Z,6.17
2019-03-19T09:29:58.172Z,4.80
2019-03-19T09:32:27.308Z,6.10
2019-03-19T09:34:56.329Z,5.37
2019-03-19T09:37:25.410Z,4.60
2019-03-19T09:39:54.634Z,5.57
2019-03-19T09:42:23.672Z,5.20
2019-03-19T09:44:58.368Z,4.87
2019-03-19T09:47:23.432Z,4.30
2019-03-19T09:49:52.450Z,3.77
2019-03-19T09:52:21.578Z,5.27
2019-03-19T09:54:50.684Z,4.47
2019-03-19T09:57:20.128Z,4.17
2019-03-19T09:59:49.224Z,4.97
2019-03-19T10:02:18.230Z,4.37
2019-03-19T10:04:47.255Z,4.07
2019-03-19T10:07:16.287Z,3.40
2019-03-19T10:09:45.389Z,3.90
2019-03-19T10:12:14.411Z,3.37
2019-03-19T10:14:43.433Z,3.20
2019-03-19T10:17:12.523Z,3.60
2019-03-19T10:19:41.600Z,2.80
2019-03-19T10:22:10.638Z,2.53
2019-03-19T10:24:39.686Z,2.27
2019-03-19T10:27:08.816Z,2.80
2019-03-19T10:29:38.780Z,3.20
2019-03-19T10:32:08.212Z,2.43
2019-03-19T10:34:37.268Z,2.27
2019-03-19T10:37:07.256Z,2.30
2019-03-19T10:39:36.296Z,2.30
2019-03-19T10:42:05.306Z,2.40
2019-03-19T10:44:34.334Z,2.20
2019-03-19T10:47:03.368Z,2.20
2019-03-19T10:49:32.430Z,2.00
2019-03-19T10:52:01.599Z,3.00
2019-03-19T10:54:30.697Z,2.57
2019-03-19T10:56:59.767Z,1.93
2019-03-19T10:59:28.806Z,1.90
2019-03-19T11:01:58.158Z,2.57
2019-03-19T11:04:27.930Z,2.27
2019-03-19T11:06:57.318Z,2.20
2019-03-19T11:09:26.731Z,1.87
2019-03-19T11:11:56.058Z,2.50
2019-03-19T11:14:25.617Z,2.50
2019-03-19T11:16:55.238Z,2.00
2019-03-19T11:19:24.335Z,2.50
2019-03-19T11:21:53.493Z,2.20
2019-03-19T11:24:22.628Z,2.40
2019-03-19T11:26:51.674Z,1.97
2019-03-19T11:29:20.686Z,2.20
2019-03-19T11:31:50.609Z,2.00
2019-03-19T11:34:19.660Z,2.07
2019-03-19T11:36:57.374Z,2.50
2019-03-19T11:39:19.459Z,2.27
2019-03-19T11:41:49.375Z,2.57
2019-03-19T11:44:18.403Z,3.10
2019-03-19T11:46:47.536Z,2.63
2019-03-19T11:49:16.543Z,2.50
2019-03-19T11:51:45.562Z,2.47
2019-03-19T11:54:14.606Z,2.37
2019-03-19T11:56:43.681Z,2.10
2019-03-19T11:59:12.673Z,2.60
2019-03-19T12:01:41.777Z,2.20
2019-03-19T12:04:10.791Z,2.30
2019-03-19T12:06:39.937Z,2.50
2019-03-19T12:09:09.121Z,2.10
2019-03-19T12:11:38.902Z,2.00
2019-03-19T12:14:15.349Z,2.60
2019-03-19T12:16:44.426Z,2.10
2019-03-19T12:19:13.543Z,2.47
2019-03-19T12:21:42.583Z,2.07
2019-03-19T12:24:11.800Z,2.50
2019-03-19T12:26:44.274Z,2.27
2019-03-19T12:29:13.399Z,2.33
2019-03-19T12:31:42.433Z,2.33
2019-03-19T12:34:11.637Z,2.10
2019-03-19T12:36:40.681Z,2.53
2019-03-19T12:39:09.933Z,2.60
2019-03-19T12:41:38.979Z,2.00
2019-03-19T12:44:07.985Z,2.30
2019-03-19T12:46:45.920Z,2.60
2019-03-19T12:49:15.171Z,2.47
2019-03-19T12:51:44.405Z,2.17
2019-03-19T12:54:13.497Z,1.53
2019-03-19T12:56:42.556Z,2.50
2019-03-19T12:59:19.853Z,2.70
2019-03-19T13:01:46.413Z,1.90
2019-03-19T13:04:15.672Z,1.60
2019-03-19T13:06:44.723Z,2.57
2019-03-19T13:09:13.754Z,3.03
2019-03-19T13:11:42.946Z,1.90
2019-03-19T13:14:12.156Z,1.80
2019-03-19T13:16:42.902Z,2.33
2019-03-19T13:19:13.152Z,2.03
2019-03-19T13:21:42.204Z,1.93
2019-03-19T13:24:20.313Z,1.70
2019-03-19T13:26:49.342Z,2.50
2019-03-19T13:29:19.445Z,2.33
2019-03-19T13:31:48.493Z,2.10
2019-03-19T13:34:17.506Z,2.33
2019-03-19T13:36:47.542Z,2.23
2019-03-19T13:39:16.533Z,2.57
2019-03-19T13:41:45.543Z,1.90
2019-03-19T13:44:14.595Z,2.17
2019-03-19T13:46:43.625Z,2.20
2019-03-19T13:49:12.617Z,1.83
2019-03-19T13:51:41.632Z,1.60
2019-03-19T13:54:10.639Z,1.87
2019-03-19T13:56:39.704Z,2.27
2019-03-19T13:59:08.630Z,2.00
2019-03-19T14:01:37.636Z,2.03
2019-03-19T14:04:06.636Z,1.90
2019-03-19T14:06:35.717Z,2.10
2019-03-19T14:09:06.292Z,2.23
2019-03-19T14:11:35.352Z,2.20
2019-03-19T14:14:04.449Z,2.00
2019-03-19T14:16:33.471Z,2.43
2019-03-19T14:19:02.525Z,2.10
2019-03-19T14:21:31.519Z,1.90
2019-03-19T14:24:00.554Z,2.17
2019-03-19T14:26:29.551Z,2.20
2019-03-19T14:28:58.576Z,2.60
2019-03-19T14:31:27.595Z,2.03
2019-03-19T14:33:56.613Z,2.23
2019-03-19T14:36:25.656Z,2.20
2019-03-19T14:38:54.646Z,2.00
2019-03-19T14:41:23.635Z,2.43
2019-03-19T14:43:52.663Z,2.30
2019-03-19T14:46:21.692Z,2.10
2019-03-19T14:48:50.708Z,2.73
2019-03-19T14:51:19.878Z,2.03
2019-03-19T14:53:49.953Z,2.30
2019-03-19T14:56:18.884Z,2.30
2019-03-19T14:58:47.913Z,1.97
2019-03-19T15:01:19.615Z,2.53
2019-03-19T15:03:47.642Z,2.53
2019-03-19T15:09:32.672Z,2.07
2019-03-19T15:12:01.735Z,2.00
2019-03-19T15:14:30.770Z,2.07
2019-03-19T15:17:04.767Z,1.93
2019-03-19T15:19:30.672Z,2.00
2019-03-19T15:21:59.611Z,1.90
2019-03-19T15:24:28.726Z,1.90
2019-03-19T15:26:57.652Z,2.20
2019-03-19T15:29:26.626Z,1.90
2019-03-19T15:31:56.605Z,2.40
2019-03-19T15:34:25.748Z,2.30
